Terminal Aerodrome Forecast
Issued by NWS

Home | Current Version | Previous Version | Text Only | Print | Product List | Glossary On
Versions: 1 2 3 4 5 6 7 8 9 10 11 12 13 14 15 16 17 18
903
FTUS43 KJKL 042333
TAFSJS
TAF
KSJS 042333Z 0500/0524 26005KT P6SM SHRA OVC045
     FM050400 29006KT P6SM OVC070
     FM051300 VRB03KT P6SM VCSH BKN010
     FM051800 30006KT P6SM SHRA BKN025
     FM052200 30006KT 3SM SHRA OVC010=

USA.gov is the U.S. government's official web portal to all federal, state and local government web resources and services.